Time;durP1;ratioP1;P1;durP2;ratioP2;P2;SDS_P1;SDS_P2;PMS_P1;PMS_P2;Temp;Humidity;BMP_temperature;BMP_pressure;BME280_temperature;BME280_humidity;BME280_pressure;Samples;Min_cycle;Max_cycle;Signal;HPM_P1;HPM_P2
2022/12/22 03:25:52;;;;;;;;;;;7.90;99.90;;;;;;4995011;28;19951;-73
2022/12/22 03:28:19;;;;;;;;;;;8.20;99.90;;;;;;4983719;28;19929;-73
2022/12/22 03:30:44;;;;;;;;;;;7.30;99.90;;;;;;4981201;28;19976;-73
2022/12/22 03:33:10;;;;;;;;;;;7.40;99.90;;;;;;4982905;28;19923;-73
2022/12/22 03:35:35;;;;;;;;;;;7.30;99.90;;;;;;4984937;28;19918;-73
2022/12/22 03:38:02;;;;;;;;;;;7.30;99.90;;;;;;4978299;28;19945;-73
2022/12/22 03:40:30;;;;;;;;;;;7.20;99.90;;;;;;4982232;28;20008;-74
2022/12/22 03:48:25;;;;;;;;;;;7.30;99.90;;;;;;4997182;28;20355;-73
2022/12/22 03:50:50;;;;;;;;;;;7.50;99.90;;;;;;4981043;28;20016;-73
2022/12/22 03:53:16;;;;;;;;;;;8.50;99.90;;;;;;4979987;28;20008;-72
2022/12/22 03:55:41;;;;;;;;;;;7.10;99.90;;;;;;4984307;28;20012;-73
2022/12/22 03:58:06;;;;;;;;;;;7.60;99.90;;;;;;4980839;28;19977;-73
2022/12/22 04:00:32;;;;;;;;;;;8.10;99.90;;;;;;4983260;28;20012;-74
2022/12/22 04:02:58;;;;;;;;;;;6.90;99.90;;;;;;4978244;28;19940;-73
2022/12/22 04:05:23;;;;;;;;;;;6.90;99.90;;;;;;4982582;28;20001;-73
2022/12/22 04:07:49;;;;;;;;;;;6.90;99.90;;;;;;4978732;28;19928;-74
2022/12/22 04:12:58;;;;;;;;;;;8.50;99.90;;;;;;4995272;28;19925;-74
2022/12/22 04:15:28;;;;;;;;;;;6.80;99.90;;;;;;4982335;28;19928;-73
2022/12/22 04:17:53;;;;;;;;;;;6.90;99.90;;;;;;4983337;28;19930;-74
2022/12/22 04:20:20;;;;;;;;;;;6.90;99.90;;;;;;4979437;28;20016;-73
2022/12/22 04:22:46;;;;;;;;;;;7.10;99.90;;;;;;4982501;28;19918;-74
2022/12/22 04:25:11;;;;;;;;;;;6.90;99.90;;;;;;4982560;28;19928;-73
2022/12/22 04:27:37;;;;;;;;;;;7.10;99.90;;;;;;4981098;28;20416;-74
2022/12/22 04:30:03;;;;;;;;;;;7.30;99.90;;;;;;4983930;28;19925;-73
2022/12/22 04:32:29;;;;;;;;;;;7.00;99.90;;;;;;4980137;28;19922;-73
2022/12/22 04:34:54;;;;;;;;;;;7.30;99.90;;;;;;4980431;28;19973;-74
2022/12/22 04:37:20;;;;;;;;;;;7.00;99.90;;;;;;4985912;28;19947;-73
2022/12/22 04:39:45;;;;;;;;;;;7.10;99.90;;;;;;4986322;28;19926;-73
2022/12/22 04:42:11;;;;;;;;;;;7.10;99.90;;;;;;4986626;28;20297;-73
2022/12/22 04:44:36;;;;;;;;;;;7.40;99.90;;;;;;4985359;28;19933;-73
2022/12/22 04:47:02;;;;;;;;;;;7.20;99.90;;;;;;4987989;28;20350;-74
2022/12/22 04:49:27;;;;;;;;;;;7.20;99.90;;;;;;4984066;28;20364;-73
2022/12/22 04:51:53;;;;;;;;;;;7.20;99.90;;;;;;4984246;28;20408;-74
2022/12/22 04:54:18;;;;;;;;;;;7.50;99.90;;;;;;4979875;28;20012;-73
2022/12/22 04:56:44;;;;;;;;;;;7.20;99.90;;;;;;4986858;28;20064;-73
2022/12/22 04:59:09;;;;;;;;;;;7.00;99.90;;;;;;4986281;28;19975;-73
2022/12/22 05:01:35;;;;;;;;;;;7.10;99.90;;;;;;4984393;28;19921;-73
2022/12/22 05:04:00;;;;;;;;;;;7.00;99.90;;;;;;4985475;28;20294;-73
2022/12/22 05:06:26;;;;;;;;;;;6.90;99.90;;;;;;4982577;28;20408;-73
2022/12/22 05:08:51;;;;;;;;;;;6.80;99.90;;;;;;4986883;28;19921;-73
2022/12/22 05:11:17;;;;;;;;;;;7.20;99.90;;;;;;4983659;28;19965;-73
2022/12/22 05:13:42;;;;;;;;;;;8.00;99.90;;;;;;4982751;28;19969;-73
2022/12/22 05:16:12;;;;;;;;;;;6.90;99.90;;;;;;4983724;28;19968;-73
2022/12/22 05:18:39;;;;;;;;;;;6.80;99.90;;;;;;4982309;28;19921;-73
2022/12/22 05:21:10;;;;;;;;;;;6.80;99.90;;;;;;4984362;28;19922;-74
2022/12/22 05:23:36;;;;;;;;;;;6.70;99.90;;;;;;4982584;28;19970;-74
2022/12/22 05:26:01;;;;;;;;;;;6.70;99.90;;;;;;4985007;28;19980;-73
2022/12/22 05:28:27;;;;;;;;;;;8.30;99.90;;;;;;4984631;28;19962;-73
2022/12/22 05:30:52;;;;;;;;;;;6.70;99.90;;;;;;4986120;28;19957;-73
2022/12/22 05:33:18;;;;;;;;;;;6.60;99.90;;;;;;4980010;28;19926;-74
2022/12/22 05:35:44;;;;;;;;;;;7.10;99.90;;;;;;4984024;28;20285;-73
2022/12/22 05:38:09;;;;;;;;;;;7.00;99.90;;;;;;4984988;28;19929;-73
2022/12/22 05:40:35;;;;;;;;;;;6.70;99.90;;;;;;4984218;28;19926;-74
2022/12/22 05:43:00;;;;;;;;;;;6.50;99.90;;;;;;4983833;28;19929;-73
2022/12/22 05:45:26;;;;;;;;;;;7.70;99.90;;;;;;4982419;28;19922;-73
2022/12/22 05:47:52;;;;;;;;;;;6.50;99.90;;;;;;4982032;28;19922;-73
2022/12/22 05:50:19;;;;;;;;;;;6.50;99.90;;;;;;4985696;28;19926;-73
2022/12/22 05:52:45;;;;;;;;;;;6.40;99.90;;;;;;4980892;28;20395;-73
2022/12/22 05:55:11;;;;;;;;;;;6.40;99.90;;;;;;4983493;28;20038;-73
2022/12/22 05:57:36;;;;;;;;;;;6.30;99.90;;;;;;4981933;28;20417;-74
2022/12/22 06:00:05;;;;;;;;;;;6.30;99.90;;;;;;4985640;28;19950;-73
2022/12/22 06:02:31;;;;;;;;;;;6.30;99.90;;;;;;4982900;28;19922;-74
2022/12/22 06:04:56;;;;;;;;;;;6.30;99.90;;;;;;4982819;28;20060;-74
2022/12/22 06:07:22;;;;;;;;;;;6.40;99.90;;;;;;4982053;28;19929;-74
2022/12/22 06:09:48;;;;;;;;;;;7.30;99.90;;;;;;4983972;28;19929;-74
2022/12/22 06:12:13;;;;;;;;;;;6.20;99.90;;;;;;4985057;28;19929;-73
2022/12/22 06:14:39;;;;;;;;;;;6.10;99.90;;;;;;4984635;28;20420;-72
2022/12/22 06:17:04;;;;;;;;;;;7.60;99.90;;;;;;4983418;28;19921;-74
2022/12/22 06:19:30;;;;;;;;;;;6.00;99.90;;;;;;4984392;28;19922;-77
2022/12/22 06:21:55;;;;;;;;;;;6.40;99.90;;;;;;4983299;28;20393;-75
2022/12/22 06:24:21;;;;;;;;;;;6.90;99.90;;;;;;4982816;28;20293;-73
2022/12/22 06:26:46;;;;;;;;;;;6.80;99.90;;;;;;4980081;28;19929;-75
2022/12/22 06:29:12;;;;;;;;;;;5.70;99.90;;;;;;4982608;28;19929;-84
2022/12/22 06:31:37;;;;;;;;;;;6.90;99.90;;;;;;4981715;28;20288;-85
2022/12/22 06:34:03;;;;;;;;;;;7.00;99.90;;;;;;4982722;28;20683;-73
2022/12/22 06:36:28;;;;;;;;;;;6.00;99.90;;;;;;4983997;28;19922;-76
2022/12/22 06:38:54;;;;;;;;;;;6.40;99.90;;;;;;4982120;28;19921;-75
2022/12/22 06:43:07;;;;;;;;;;;6.40;99.90;;;;;;4985019;28;20013;-75
2022/12/22 06:44:05;;;;;;;;;;;6.30;99.90;;;;;;4984790;28;19925;-74
2022/12/22 06:46:31;;;;;;;;;;;6.30;99.90;;;;;;4982040;28;20344;-75
2022/12/22 06:48:56;;;;;;;;;;;5.40;99.90;;;;;;4981999;28;20420;-75
2022/12/22 06:51:22;;;;;;;;;;;5.20;99.90;;;;;;4982215;28;20417;-74
2022/12/22 06:53:47;;;;;;;;;;;6.40;99.90;;;;;;4983254;28;19979;-75
2022/12/22 06:56:13;;;;;;;;;;;5.10;99.90;;;;;;4984084;28;19972;-75
2022/12/22 06:58:38;;;;;;;;;;;5.10;99.90;;;;;;4984496;28;20016;-74
2022/12/22 07:01:04;;;;;;;;;;;5.00;99.90;;;;;;4978071;28;19926;-75
2022/12/22 07:03:29;;;;;;;;;;;5.00;99.90;;;;;;4983083;28;20004;-76
2022/12/22 07:05:55;;;;;;;;;;;5.90;99.90;;;;;;4981787;28;19934;-75
2022/12/22 07:08:20;;;;;;;;;;;4.90;99.90;;;;;;4978748;28;19922;-75
2022/12/22 07:10:58;;;;;;;;;;;4.80;99.90;;;;;;4984342;28;20321;-81
2022/12/22 07:13:28;;;;;;;;;;;4.80;99.90;;;;;;4982274;28;20300;-75
2022/12/22 07:15:54;;;;;;;;;;;4.70;99.90;;;;;;4982797;28;19929;-76
2022/12/22 07:18:19;;;;;;;;;;;4.60;99.90;;;;;;4980210;28;19930;-75
2022/12/22 07:20:45;;;;;;;;;;;4.60;99.90;;;;;;4985551;28;20396;-76
2022/12/22 07:23:10;;;;;;;;;;;5.70;99.90;;;;;;4978748;28;20020;-75
2022/12/22 07:25:36;;;;;;;;;;;4.30;99.90;;;;;;4980753;28;19922;-74
2022/12/22 07:28:02;;;;;;;;;;;5.80;99.90;;;;;;4982435;28;19922;-73
2022/12/22 07:30:27;;;;;;;;;;;4.30;99.90;;;;;;4979455;28;19926;-73
2022/12/22 07:32:53;;;;;;;;;;;4.20;99.90;;;;;;4980332;28;19922;-73
2022/12/22 07:35:19;;;;;;;;;;;5.30;99.90;;;;;;4979998;28;19922;-72
2022/12/22 07:37:46;;;;;;;;;;;4.10;99.90;;;;;;4981074;28;19972;-72
2022/12/22 07:40:11;;;;;;;;;;;4.10;99.90;;;;;;4977438;28;19926;-72
2022/12/22 07:42:43;;;;;;;;;;;5.30;99.90;;;;;;4981945;28;19925;-72
2022/12/22 07:45:09;;;;;;;;;;;5.60;99.90;;;;;;4979082;28;19929;-72
2022/12/22 07:47:34;;;;;;;;;;;4.10;99.90;;;;;;4970444;28;19925;-74
2022/12/22 07:52:44;;;;;;;;;;;4.10;99.90;;;;;;4974302;28;19922;-73
2022/12/22 07:55:10;;;;;;;;;;;4.00;99.90;;;;;;4975727;28;20396;-72
2022/12/22 07:57:36;;;;;;;;;;;3.80;99.90;;;;;;4974714;28;19922;-74
2022/12/22 08:00:02;;;;;;;;;;;3.80;99.90;;;;;;4982820;28;19922;-72
2022/12/22 08:02:27;;;;;;;;;;;3.70;99.90;;;;;;4974005;28;19926;-76
2022/12/22 08:04:55;;;;;;;;;;;3.80;99.90;;;;;;4975230;28;20424;-73
2022/12/22 08:07:21;;;;;;;;;;;3.70;99.90;;;;;;4971984;28;19936;-73
2022/12/22 08:09:46;;;;;;;;;;;4.30;99.90;;;;;;4976511;28;19921;-74
2022/12/22 08:12:12;;;;;;;;;;;5.40;99.90;;;;;;4978032;28;20020;-73
2022/12/22 08:14:37;;;;;;;;;;;3.60;99.90;;;;;;4975040;28;19965;-73
2022/12/22 08:17:03;;;;;;;;;;;3.60;99.90;;;;;;4976835;28;19968;-73
2022/12/22 08:19:29;;;;;;;;;;;3.60;99.90;;;;;;4980827;28;19929;-73
2022/12/22 08:21:54;;;;;;;;;;;3.50;99.90;;;;;;4983346;28;19921;-75
2022/12/22 08:24:20;;;;;;;;;;;3.50;99.90;;;;;;4980462;28;20072;-74
2022/12/22 08:26:47;;;;;;;;;;;3.60;99.90;;;;;;4980906;28;19932;-74
2022/12/22 08:29:13;;;;;;;;;;;3.60;99.90;;;;;;4979458;28;19930;-75
2022/12/22 08:31:40;;;;;;;;;;;3.60;99.90;;;;;;4978410;28;19929;-76
2022/12/22 08:34:06;;;;;;;;;;;4.70;99.90;;;;;;4980254;28;19979;-76
2022/12/22 08:36:34;;;;;;;;;;;3.50;99.90;;;;;;4978826;28;19922;-78
2022/12/22 08:39:00;;;;;;;;;;;3.50;99.90;;;;;;4982126;28;20293;-75
2022/12/22 08:44:11;;;;;;;;;;;5.00;99.90;;;;;;4980207;28;20679;-84
2022/12/22 08:46:36;;;;;;;;;;;3.50;99.90;;;;;;4981438;28;19929;-72
2022/12/22 08:49:02;;;;;;;;;;;3.60;99.90;;;;;;4980716;28;19921;-77
2022/12/22 08:51:28;;;;;;;;;;;3.60;99.90;;;;;;4984282;28;19930;-75
2022/12/22 08:53:53;;;;;;;;;;;5.00;99.90;;;;;;4980593;28;19921;-77
2022/12/22 08:56:19;;;;;;;;;;;3.70;99.90;;;;;;4979984;28;19957;-76
2022/12/22 08:58:44;;;;;;;;;;;3.80;99.90;;;;;;4978178;28;19926;-76
2022/12/22 09:01:17;;;;;;;;;;;3.90;99.90;;;;;;4981557;28;19973;-77
2022/12/22 09:03:46;;;;;;;;;;;4.00;99.90;;;;;;4981456;28;19929;-76
2022/12/22 09:06:12;;;;;;;;;;;4.30;99.90;;;;;;4981486;28;19922;-76
2022/12/22 09:08:37;;;;;;;;;;;4.70;99.90;;;;;;4979789;28;19980;-76
2022/12/22 09:11:03;;;;;;;;;;;4.50;99.90;;;;;;4977568;28;19922;-76
2022/12/22 09:13:29;;;;;;;;;;;4.70;99.90;;;;;;4980574;28;19929;-76
2022/12/22 09:15:54;;;;;;;;;;;6.30;99.90;;;;;;4980456;28;20293;-73
2022/12/22 09:18:20;;;;;;;;;;;5.00;99.90;;;;;;4983016;28;19922;-76
2022/12/22 09:20:45;;;;;;;;;;;7.20;99.90;;;;;;4982817;28;20016;-77
2022/12/22 09:23:11;;;;;;;;;;;7.50;99.90;;;;;;4980712;28;20380;-76
2022/12/22 09:25:36;;;;;;;;;;;8.40;99.90;;;;;;4985730;28;20379;-74
2022/12/22 09:28:05;;;;;;;;;;;9.90;99.90;;;;;;4983736;28;19976;-76
2022/12/22 09:30:31;;;;;;;;;;;9.70;99.90;;;;;;4986194;28;20373;-75
2022/12/22 09:32:56;;;;;;;;;;;10.70;99.90;;;;;;4983992;28;19921;-76
2022/12/22 09:35:22;;;;;;;;;;;11.70;99.90;;;;;;4981849;28;19928;-75
2022/12/22 09:37:50;;;;;;;;;;;12.60;99.90;;;;;;4985211;28;19926;-74
2022/12/22 09:40:15;;;;;;;;;;;13.20;99.90;;;;;;4985721;28;19972;-74
2022/12/22 09:42:41;;;;;;;;;;;13.80;99.90;;;;;;4983344;28;20397;-74
2022/12/22 09:45:11;;;;;;;;;;;14.60;99.90;;;;;;4985778;28;19922;-74
2022/12/22 09:47:39;;;;;;;;;;;15.10;99.90;;;;;;4980503;28;20060;-75
2022/12/22 09:50:05;;;;;;;;;;;14.70;99.90;;;;;;4984518;28;20000;-76
2022/12/22 09:52:32;;;;;;;;;;;14.50;99.90;;;;;;4985412;28;19922;-75
2022/12/22 09:54:57;;;;;;;;;;;14.10;99.90;;;;;;4983714;28;19930;-76
2022/12/22 09:57:27;;;;;;;;;;;13.90;99.90;;;;;;4981416;28;19976;-75
2022/12/22 09:59:53;;;;;;;;;;;13.50;99.90;;;;;;4984217;28;19921;-74
2022/12/22 10:02:21;;;;;;;;;;;13.10;99.90;;;;;;4983755;28;19929;-74
2022/12/22 10:04:55;;;;;;;;;;;13.30;99.90;;;;;;4984123;28;20358;-74
2022/12/22 10:07:32;;;;;;;;;;;12.30;99.90;;;;;;4983319;28;19972;-73
2022/12/22 10:10:03;;;;;;;;;;;11.90;99.90;;;;;;4985195;28;19925;-74
2022/12/22 10:12:29;;;;;;;;;;;11.50;99.90;;;;;;4981542;28;19922;-74
2022/12/22 10:14:54;;;;;;;;;;;11.00;99.90;;;;;;4980644;28;19928;-74
2022/12/22 10:17:26;;;;;;;;;;;10.90;99.90;;;;;;4983209;28;19933;-74
2022/12/22 10:19:53;;;;;;;;;;;10.80;99.90;;;;;;4984593;28;20289;-73
2022/12/22 10:22:22;;;;;;;;;;;10.70;99.90;;;;;;4984246;28;19918;-74
2022/12/22 10:24:47;;;;;;;;;;;11.10;99.90;;;;;;4981368;28;20464;-74
2022/12/22 10:27:13;;;;;;;;;;;11.60;99.90;;;;;;4986146;28;20004;-73
2022/12/22 10:29:39;;;;;;;;;;;12.20;99.90;;;;;;4981704;28;19921;-73
2022/12/22 10:32:10;;;;;;;;;;;13.60;99.90;;;;;;4984073;28;19937;-74
2022/12/22 10:34:36;;;;;;;;;;;14.30;99.90;;;;;;4972550;28;19922;-71
2022/12/22 10:37:03;;;;;;;;;;;15.20;99.90;;;;;;4985090;28;20274;-72
2022/12/22 10:39:33;;;;;;;;;;;15.70;99.90;;;;;;4980297;28;19922;-70
2022/12/22 10:42:00;;;;;;;;;;;16.10;99.90;;;;;;4977578;28;19930;-71
2022/12/22 10:44:30;;;;;;;;;;;16.30;99.90;;;;;;4985197;28;19921;-72
2022/12/22 10:46:57;;;;;;;;;;;16.70;99.90;;;;;;4976538;28;19928;-72
2022/12/22 10:49:24;;;;;;;;;;;16.90;99.90;;;;;;4983615;28;20012;-70
2022/12/22 10:51:53;;;;;;;;;;;17.00;99.90;;;;;;4984995;28;20320;-73
2022/12/22 10:54:29;;;;;;;;;;;17.00;99.90;;;;;;4979853;28;19929;-72
2022/12/22 10:56:59;;;;;;;;;;;16.90;99.90;;;;;;4974053;28;19926;-74
2022/12/22 10:59:24;;;;;;;;;;;17.40;99.90;;;;;;4978653;28;19922;-76
2022/12/22 11:01:50;;;;;;;;;;;17.90;99.30;;;;;;4985141;28;19922;-74
2022/12/22 11:04:26;;;;;;;;;;;18.10;99.60;;;;;;4980594;28;20004;-72
2022/12/22 11:06:52;;;;;;;;;;;17.70;99.30;;;;;;4977840;28;20012;-73
2022/12/22 11:09:18;;;;;;;;;;;18.00;99.50;;;;;;4981087;28;19928;-74
2022/12/22 11:11:50;;;;;;;;;;;17.90;99.70;;;;;;4980687;28;19929;-73
2022/12/22 11:14:19;;;;;;;;;;;17.70;99.30;;;;;;4981325;28;19922;-74
2022/12/22 11:16:54;;;;;;;;;;;18.00;99.50;;;;;;4986720;28;19918;-72
2022/12/22 11:19:31;;;;;;;;;;;17.50;99.90;;;;;;4982500;28;19930;-72
2022/12/22 11:22:15;;;;;;;;;;;16.90;99.90;;;;;;4981147;28;19921;-73
2022/12/22 11:24:50;;;;;;;;;;;17.40;99.90;;;;;;4982949;28;19926;-71
2022/12/22 11:27:24;;;;;;;;;;;17.60;99.90;;;;;;4982088;28;20427;-76
2022/12/22 11:29:53;;;;;;;;;;;17.50;99.90;;;;;;4976709;28;19957;-71
2022/12/22 11:32:18;;;;;;;;;;;17.80;99.00;;;;;;4976969;28;19922;-75
2022/12/22 11:35:06;;;;;;;;;;;18.20;99.00;;;;;;4979232;28;20008;-72
2022/12/22 11:37:53;;;;;;;;;;;18.50;98.00;;;;;;4981638;28;19938;-72
2022/12/22 11:40:18;;;;;;;;;;;17.60;99.70;;;;;;4981969;28;19930;-72
2022/12/22 11:42:50;;;;;;;;;;;17.50;99.90;;;;;;4980686;28;20307;-71
2022/12/22 11:45:26;;;;;;;;;;;17.80;99.10;;;;;;4976119;28;20333;-75
2022/12/22 11:48:18;;;;;;;;;;;17.50;99.60;;;;;;4978916;28;19922;-72
2022/12/22 11:50:45;;;;;;;;;;;17.00;99.90;;;;;;4949181;28;20495;-73
2022/12/22 11:53:16;;;;;;;;;;;16.70;99.90;;;;;;4979573;28;20017;-74
2022/12/22 11:55:45;;;;;;;;;;;16.10;99.90;;;;;;4978762;28;19929;-73
2022/12/22 11:58:37;;;;;;;;;;;16.40;99.90;;;;;;4978442;28;20016;-73
2022/12/22 12:01:09;;;;;;;;;;;16.60;99.90;;;;;;4981243;28;19933;-73
2022/12/22 12:03:41;;;;;;;;;;;16.70;99.90;;;;;;4976362;28;19922;-74
2022/12/22 12:06:16;;;;;;;;;;;16.00;99.90;;;;;;4981142;28;19921;-76
2022/12/22 12:08:52;;;;;;;;;;;15.60;99.90;;;;;;4981171;28;19942;-73
2022/12/22 12:11:36;;;;;;;;;;;15.10;99.90;;;;;;4980091;28;20028;-72
2022/12/22 12:14:22;;;;;;;;;;;14.50;99.90;;;;;;4980353;28;19921;-77
2022/12/22 12:16:48;;;;;;;;;;;13.60;99.90;;;;;;4976628;28;19976;-71
2022/12/22 12:19:28;;;;;;;;;;;13.10;99.90;;;;;;4983928;28;19922;-73
2022/12/22 12:21:55;;;;;;;;;;;12.70;99.90;;;;;;4980515;28;20032;-73
2022/12/22 12:24:32;;;;;;;;;;;12.00;99.90;;;;;;4981316;28;19965;-71
2022/12/22 12:27:03;;;;;;;;;;;11.70;99.90;;;;;;4981654;28;19922;-72
2022/12/22 12:29:44;;;;;;;;;;;11.40;99.90;;;;;;4980033;28;19922;-72
2022/12/22 12:32:20;;;;;;;;;;;11.20;99.90;;;;;;4971315;28;19931;-74
2022/12/22 12:34:56;;;;;;;;;;;11.10;99.90;;;;;;4979590;28;19932;-72
2022/12/22 12:37:29;;;;;;;;;;;11.00;99.90;;;;;;4983798;28;20457;-74
2022/12/22 12:40:01;;;;;;;;;;;10.90;99.90;;;;;;4980851;28;19922;-76
2022/12/22 12:42:27;;;;;;;;;;;11.00;99.90;;;;;;4981214;28;20289;-74
2022/12/22 12:44:53;;;;;;;;;;;10.90;99.90;;;;;;4980871;28;19922;-74
2022/12/22 12:47:23;;;;;;;;;;;10.70;99.90;;;;;;4983656;28;19977;-76
2022/12/22 12:49:58;;;;;;;;;;;10.60;99.90;;;;;;4982257;28;20422;-73
2022/12/22 12:52:47;;;;;;;;;;;10.60;99.90;;;;;;4976115;28;19922;-73
2022/12/22 12:55:23;;;;;;;;;;;10.40;99.90;;;;;;4975292;28;19933;-73
2022/12/22 12:57:49;;;;;;;;;;;10.10;99.90;;;;;;4982826;28;20009;-73
2022/12/22 13:00:27;;;;;;;;;;;10.00;99.90;;;;;;4981651;28;19932;-74
2022/12/22 13:02:56;;;;;;;;;;;9.80;99.90;;;;;;4984485;28;19969;-71
2022/12/22 13:05:41;;;;;;;;;;;9.60;99.90;;;;;;4985040;28;19922;-70
2022/12/22 13:08:09;;;;;;;;;;;9.50;99.90;;;;;;4980737;28;20004;-72
2022/12/22 13:10:40;;;;;;;;;;;9.60;99.90;;;;;;4985496;28;19967;-72
2022/12/22 13:13:09;;;;;;;;;;;9.50;99.90;;;;;;4983713;28;19932;-72
2022/12/22 13:15:36;;;;;;;;;;;9.60;99.90;;;;;;4986651;28;20000;-73
2022/12/22 13:18:02;;;;;;;;;;;9.50;99.90;;;;;;4980021;28;20384;-73
2022/12/22 13:20:30;;;;;;;;;;;9.50;99.90;;;;;;4978365;28;19969;-73
2022/12/22 13:22:57;;;;;;;;;;;9.60;99.90;;;;;;4982740;28;19929;-73
2022/12/22 13:25:24;;;;;;;;;;;9.50;99.90;;;;;;4986169;28;20036;-72
2022/12/22 13:27:51;;;;;;;;;;;9.40;99.90;;;;;;4984048;28;19922;-73
2022/12/22 13:30:20;;;;;;;;;;;9.30;99.90;;;;;;4982497;28;19927;-73
2022/12/22 13:32:47;;;;;;;;;;;9.30;99.90;;;;;;4984115;28;19951;-72
2022/12/22 13:35:21;;;;;;;;;;;9.50;99.90;;;;;;4985096;28;19922;-73
2022/12/22 13:37:47;;;;;;;;;;;9.20;99.90;;;;;;4984805;28;19973;-72
2022/12/22 13:40:16;;;;;;;;;;;9.30;99.90;;;;;;4985543;28;19929;-72
2022/12/22 13:42:51;;;;;;;;;;;9.40;99.90;;;;;;4983424;28;20424;-72
2022/12/22 13:45:19;;;;;;;;;;;9.40;99.90;;;;;;4983475;28;19928;-72
2022/12/22 13:47:45;;;;;;;;;;;9.50;99.90;;;;;;4984966;28;19922;-72
2022/12/22 13:50:37;;;;;;;;;;;9.50;99.90;;;;;;4984720;28;20301;-72
2022/12/22 13:53:04;;;;;;;;;;;9.50;99.90;;;;;;4973151;28;19933;-72
2022/12/22 13:55:31;;;;;;;;;;;9.50;99.90;;;;;;4983715;28;20377;-72
2022/12/22 13:58:02;;;;;;;;;;;9.60;99.90;;;;;;4982569;28;19968;-72
2022/12/22 14:00:28;;;;;;;;;;;9.70;99.90;;;;;;4984143;28;19928;-73
2022/12/22 14:02:53;;;;;;;;;;;9.60;99.90;;;;;;4981949;28;19922;-73
2022/12/22 14:05:19;;;;;;;;;;;9.60;99.90;;;;;;4985283;28;19944;-73
2022/12/22 14:08:04;;;;;;;;;;;9.50;99.90;;;;;;4982106;28;20408;-72
2022/12/22 14:10:42;;;;;;;;;;;9.40;99.90;;;;;;4980735;28;19921;-75
2022/12/22 14:13:13;;;;;;;;;;;9.40;99.90;;;;;;4982571;28;19929;-74
2022/12/22 14:15:39;;;;;;;;;;;9.30;99.90;;;;;;4982920;28;19973;-74
2022/12/22 14:18:05;;;;;;;;;;;9.80;99.90;;;;;;4981896;28;20388;-74
2022/12/22 14:20:34;;;;;;;;;;;9.80;99.90;;;;;;4976505;28;19989;-75
2022/12/22 14:23:12;;;;;;;;;;;9.20;99.90;;;;;;4998445;28;19918;-75
2022/12/22 14:25:41;;;;;;;;;;;9.10;99.90;;;;;;4982023;28;19922;-74
2022/12/22 14:28:27;;;;;;;;;;;9.10;99.90;;;;;;4983168;28;19925;-74
2022/12/22 14:30:54;;;;;;;;;;;9.00;99.90;;;;;;4979521;28;19987;-75
2022/12/22 14:33:25;;;;;;;;;;;9.00;99.90;;;;;;4982859;28;19922;-71
2022/12/22 14:36:02;;;;;;;;;;;9.00;99.90;;;;;;4984771;28;19928;-73
2022/12/22 14:38:27;;;;;;;;;;;8.80;99.90;;;;;;4980513;28;20020;-76
2022/12/22 14:40:53;;;;;;;;;;;9.40;99.90;;;;;;4983807;28;20013;-79
2022/12/22 14:43:19;;;;;;;;;;;8.70;99.90;;;;;;4988560;28;19976;-78
2022/12/22 14:45:45;;;;;;;;;;;8.60;99.90;;;;;;4982883;28;19949;-76
2022/12/22 14:48:25;;;;;;;;;;;8.50;99.90;;;;;;4985492;28;19951;-74
2022/12/22 14:50:50;;;;;;;;;;;8.50;99.90;;;;;;4978611;28;19929;-75
2022/12/22 14:53:23;;;;;;;;;;;8.50;99.90;;;;;;4980988;28;20343;-76
2022/12/22 14:55:49;;;;;;;;;;;8.30;99.90;;;;;;4980483;28;19926;-74
2022/12/22 14:58:16;;;;;;;;;;;8.40;99.90;;;;;;4981420;28;19921;-75
2022/12/22 15:00:46;;;;;;;;;;;8.40;99.90;;;;;;4984024;28;19937;-77
2022/12/22 15:03:31;;;;;;;;;;;8.30;99.90;;;;;;4982255;28;19928;-73
2022/12/22 15:06:16;;;;;;;;;;;8.30;99.90;;;;;;4976467;28;19926;-70
2022/12/22 15:08:42;;;;;;;;;;;8.20;99.90;;;;;;4980971;28;20336;-71
2022/12/22 15:11:12;;;;;;;;;;;8.20;99.90;;;;;;4982951;28;19926;-72
2022/12/22 15:13:37;;;;;;;;;;;8.10;99.90;;;;;;4991454;28;19922;-70
2022/12/22 15:16:03;;;;;;;;;;;8.10;99.90;;;;;;4979540;28;21252;-71
2022/12/22 15:18:29;;;;;;;;;;;8.00;99.90;;;;;;4980590;28;19926;-72
2022/12/22 15:20:55;;;;;;;;;;;8.00;99.90;;;;;;4978564;28;19965;-72
2022/12/22 15:23:20;;;;;;;;;;;7.90;99.90;;;;;;4980072;28;20373;-72
2022/12/22 15:25:46;;;;;;;;;;;8.00;99.90;;;;;;4978648;28;19932;-69
2022/12/22 15:28:12;;;;;;;;;;;8.00;99.90;;;;;;4980813;28;19922;-70
2022/12/22 15:30:37;;;;;;;;;;;8.40;99.90;;;;;;4981495;28;19933;-71
2022/12/22 15:33:03;;;;;;;;;;;7.90;99.90;;;;;;4978195;28;19965;-72
2022/12/22 15:35:33;;;;;;;;;;;8.00;99.90;;;;;;4979294;28;19918;-71
2022/12/22 15:37:58;;;;;;;;;;;7.90;99.90;;;;;;4980365;28;19937;-71
2022/12/22 15:40:24;;;;;;;;;;;7.80;99.90;;;;;;4979173;28;19922;-71
2022/12/22 15:42:50;;;;;;;;;;;7.90;99.90;;;;;;4978407;28;20393;-72
2022/12/22 15:45:16;;;;;;;;;;;7.90;99.90;;;;;;4979751;28;19926;-72
2022/12/22 15:47:44;;;;;;;;;;;8.70;99.90;;;;;;4970842;28;19922;-73
2022/12/22 15:50:13;;;;;;;;;;;7.70;99.90;;;;;;4977549;28;20265;-72
2022/12/22 15:52:40;;;;;;;;;;;7.60;99.90;;;;;;4965902;28;19926;-74
2022/12/22 15:55:08;;;;;;;;;;;7.50;99.90;;;;;;4981125;28;19922;-74
2022/12/22 15:57:33;;;;;;;;;;;7.50;99.90;;;;;;4976264;28;19926;-72
2022/12/22 15:59:59;;;;;;;;;;;7.50;99.90;;;;;;4981362;28;19922;-74
2022/12/22 16:02:24;;;;;;;;;;;8.60;99.90;;;;;;4967509;28;19922;-72
2022/12/22 16:04:50;;;;;;;;;;;7.40;99.90;;;;;;4981820;28;19921;-78
2022/12/22 16:07:15;;;;;;;;;;;7.80;99.90;;;;;;4973029;28;19981;-79
2022/12/22 16:09:42;;;;;;;;;;;7.40;99.90;;;;;;4979237;28;19922;-77
2022/12/22 16:12:16;;;;;;;;;;;7.40;99.90;;;;;;4973167;28;19926;-77
2022/12/22 16:14:43;;;;;;;;;;;7.40;99.90;;;;;;4975641;28;19926;-75
2022/12/22 16:17:19;;;;;;;;;;;8.30;99.90;;;;;;4976721;28;19926;-74
2022/12/22 16:19:44;;;;;;;;;;;7.30;99.90;;;;;;4979775;28;20512;-74
2022/12/22 16:22:11;;;;;;;;;;;7.20;99.90;;;;;;4980448;28;19933;-79
2022/12/22 16:24:37;;;;;;;;;;;7.30;99.90;;;;;;4986117;28;19933;-78
2022/12/22 16:27:03;;;;;;;;;;;7.20;99.90;;;;;;4979024;28;19925;-78
2022/12/22 16:29:28;;;;;;;;;;;7.30;99.90;;;;;;4982143;28;20002;-77
2022/12/22 16:32:01;;;;;;;;;;;7.30;99.90;;;;;;4985138;28;19921;-76
2022/12/22 16:34:28;;;;;;;;;;;7.50;99.90;;;;;;4978704;28;19969;-74
2022/12/22 16:36:53;;;;;;;;;;;8.00;99.90;;;;;;4972199;28;19918;-74
2022/12/22 16:39:19;;;;;;;;;;;7.20;99.90;;;;;;4975106;28;19984;-74
2022/12/22 16:41:45;;;;;;;;;;;7.30;99.90;;;;;;4979045;28;19926;-74
2022/12/22 16:44:13;;;;;;;;;;;7.70;99.90;;;;;;4971642;28;19922;-77
2022/12/22 16:46:38;;;;;;;;;;;7.30;99.90;;;;;;4978929;28;19970;-76
2022/12/22 16:49:06;;;;;;;;;;;7.20;99.90;;;;;;4973973;28;20289;-77
2022/12/22 16:51:32;;;;;;;;;;;7.80;99.90;;;;;;4980784;28;19933;-76
2022/12/22 16:53:58;;;;;;;;;;;7.10;99.90;;;;;;4977554;28;19925;-77
2022/12/22 16:56:25;;;;;;;;;;;7.10;99.90;;;;;;4983513;28;19981;-76
2022/12/22 16:58:51;;;;;;;;;;;7.30;99.90;;;;;;5005482;28;20439;-77
2022/12/22 17:01:18;;;;;;;;;;;7.10;99.90;;;;;;4979595;28;19934;-76
2022/12/22 17:03:44;;;;;;;;;;;7.70;99.90;;;;;;4986008;28;20321;-75
2022/12/22 17:06:10;;;;;;;;;;;7.60;99.90;;;;;;4981868;28;19921;-77
2022/12/22 17:08:40;;;;;;;;;;;7.00;99.90;;;;;;4983756;28;20433;-78
2022/12/22 17:11:07;;;;;;;;;;;7.10;99.90;;;;;;4983176;28;19922;-77
2022/12/22 17:13:33;;;;;;;;;;;6.90;99.90;;;;;;4981041;28;19922;-77
2022/12/22 17:16:00;;;;;;;;;;;6.80;99.90;;;;;;4984840;28;20872;-77
2022/12/22 17:18:26;;;;;;;;;;;6.90;99.90;;;;;;4980955;28;19922;-77
2022/12/22 17:20:54;;;;;;;;;;;6.80;99.90;;;;;;4983605;28;19929;-78
2022/12/22 17:23:25;;;;;;;;;;;6.80;99.90;;;;;;4977117;28;19921;-77
2022/12/22 17:25:50;;;;;;;;;;;6.70;99.90;;;;;;4985112;28;19930;-77
2022/12/22 17:28:16;;;;;;;;;;;7.20;99.90;;;;;;4984268;28;19922;-78
2022/12/22 17:30:42;;;;;;;;;;;6.80;99.90;;;;;;4983300;28;19926;-79
2022/12/22 17:33:14;;;;;;;;;;;6.70;99.90;;;;;;4984654;28;20005;-77
2022/12/22 17:35:41;;;;;;;;;;;6.70;99.90;;;;;;4983428;28;19930;-77
2022/12/22 17:38:19;;;;;;;;;;;7.80;99.90;;;;;;4985504;28;19961;-79
2022/12/22 17:40:46;;;;;;;;;;;6.60;99.90;;;;;;4980373;28;20290;-78
2022/12/22 17:43:13;;;;;;;;;;;6.70;99.90;;;;;;4982555;28;19918;-80
2022/12/22 17:45:39;;;;;;;;;;;6.70;99.90;;;;;;4983441;28;19930;-77
2022/12/22 17:48:05;;;;;;;;;;;6.80;99.90;;;;;;4984561;28;20024;-78
2022/12/22 17:50:30;;;;;;;;;;;6.80;99.90;;;;;;4982537;28;19921;-84
2022/12/22 17:52:56;;;;;;;;;;;6.80;99.90;;;;;;4984237;28;19922;-83
2022/12/22 17:55:23;;;;;;;;;;;7.10;99.90;;;;;;4985615;28;19938;-82
2022/12/22 17:57:49;;;;;;;;;;;7.00;99.90;;;;;;4983199;28;19926;-81
2022/12/22 18:00:16;;;;;;;;;;;6.80;99.90;;;;;;4985473;28;19968;-80
2022/12/22 18:02:41;;;;;;;;;;;6.90;99.90;;;;;;4978899;28;20338;-83
2022/12/22 18:05:10;;;;;;;;;;;6.90;99.90;;;;;;4982357;28;19969;-79
2022/12/22 18:07:36;;;;;;;;;;;7.00;99.90;;;;;;4984568;28;19918;-80
2022/12/22 18:10:02;;;;;;;;;;;6.90;99.90;;;;;;4983933;28;20013;-79